Captain Jimmy T Moran — WDE6653 — position and weather

sailwx.info

Track history (hours):
 
Tides and Currents Weather Stations Pressure Air Temp Water Temp Dewpoint Dewpoint Depression Visibility Wind Speed Wind Dir Waves Ship Positions

Captain Jimmy T Moran

Owner: Moran Towing Corp, New Cannan, CT. More information available from US FCC via Universal Licensing System and Coast Guard Vessel Documentation Center.

Last reported at 2014-Dec-21 07:27 UTC. Time now 2014-Dec-21 12:05 UTC.
Position N 29°55' W 090°06'.

Length 26 m; draft 4.9 m.

Type: Tug. MMSI: 367382920.

Date/timePositionNaut miles runAvg speedWind from/ knotsBaromVisibWave heightAir tempDewpointWater temp
2014-Dec-21 07:27N 29°55' W 090°06'0 0.0
2014-Dec-20 13:08N 29°55' W 090°06'0 0.0
2014-Dec-20 12:25N 29°55' W 090°06'0 0.0
2014-Dec-20 11:33N 29°55' W 090°06'0 0.0
2014-Dec-20 10:28N 29°55' W 090°06'0 0.0
2014-Dec-20 09:21N 29°55' W 090°06'0 0.0
2014-Dec-20 08:31N 29°55' W 090°06'0 0.0
2014-Dec-20 07:21N 29°55' W 090°06'0 0.0
2014-Dec-20 06:24N 29°55' W 090°06'0 0.0
2014-Dec-20 05:28N 29°55' W 090°06'5 0.3
2014-Dec-19 14:32N 29°57' W 090°01'1 0.1
2014-Dec-19 10:33N 29°57' W 090°01'2 0.2
2014-Dec-18 20:22N 29°57' W 090°03'0 0.0
2014-Dec-18 17:14N 29°57' W 090°03'3 0.4
2014-Dec-18 08:22N 29°55' W 090°06'0 0.1
2014-Dec-18 02:27N 29°55' W 090°06'2 0.3
2014-Dec-17 20:32N 29°55' W 090°05'2 1.5
2014-Dec-17 19:23N 29°55' W 090°06'1 1.7
2014-Dec-17 18:33N 29°55' W 090°05'4 1.8
2014-Dec-17 16:21N 29°57' W 090°01'5 0.9
2014-Dec-17 10:32N 29°55' W 090°06'1 0.9
2014-Dec-17 09:33N 29°55' W 090°05'1 0.2
2014-Dec-17 04:22N 29°55' W 090°04'0 0.2
2014-Dec-17 02:17N 29°56' W 090°04'3 2.4
2014-Dec-17 01:10N 29°55' W 090°07'1 0.1
2014-Dec-16 15:32N 29°55' W 090°06'0 0.0
2014-Dec-16 05:27N 29°55' W 090°06'1 0.6
2014-Dec-16 04:20N 29°55' W 090°07'1 0.0
2014-Dec-15 11:13N 29°55' W 090°06'0 0.2
2014-Dec-15 10:22N 29°55' W 090°06'0 0.1
2014-Dec-15 09:30N 29°55' W 090°06'0 0.1
2014-Dec-15 08:16N 29°55' W 090°06'0 0.0
2014-Dec-15 07:24N 29°55' W 090°06'0 0.0
2014-Dec-15 06:16N 29°55' W 090°06'0 0.0
2014-Dec-15 04:28N 29°55' W 090°06'0 0.0
2014-Dec-15 03:32N 29°55' W 090°06'1 0.3
2014-Dec-15 01:07N 29°55' W 090°05'0 0.0
2014-Dec-15 00:10N 29°55' W 090°05'1 0.2
2014-Dec-14 21:22N 29°55' W 090°04'1 0.2
2014-Dec-14 12:08N 29°55' W 090°06'1 0.4
2014-Dec-14 08:32N 29°55' W 090°04'3 2.8
2014-Dec-14 07:24N 29°57' W 090°02'0 0.5
2014-Dec-14 06:28N 29°57' W 090°01'0 0.0
2014-Dec-14 05:06N 29°57' W 090°01'0 0.0
2014-Dec-14 04:27N 29°57' W 090°01'0 0.0
2014-Dec-14 03:27N 29°57' W 090°01'0 0.0
2014-Dec-14 02:33N 29°57' W 090°01'0 0.0
2014-Dec-14 01:27N 29°57' W 090°01'0 0.0
2014-Dec-14 00:33N 29°57' W 090°01'0 0.0
2014-Dec-13 23:30N 29°57' W 090°01'0 0.0
2014-Dec-13 22:26N 29°57' W 090°01'4 1.1
2014-Dec-13 18:28N 29°55' W 089°57'7 7.0
2014-Dec-13 17:29N 29°55' W 090°05'1 1.2
2014-Dec-13 16:27N 29°55' W 090°06'0 0.0
2014-Dec-13 15:31N 29°55' W 090°06'1 0.0
2014-Dec-13 00:32N 29°54' W 090°06'1 0.0
2014-Dec-12 11:32N 29°55' W 090°06'1 0.3
2014-Dec-12 09:23N 29°55' W 090°07'1 0.3
2014-Dec-12 07:25N 29°55' W 090°06'0 0.0
2014-Dec-12 06:18N 29°55' W 090°06'0 0.1
2014-Dec-12 04:31N 29°55' W 090°06'0 0.0
2014-Dec-12 01:33N 29°55' W 090°06'0 0.2
2014-Dec-12 00:11N 29°55' W 090°05'2 2.1
2014-Dec-11 23:17N 29°56' W 090°04'2 0.2
2014-Dec-11 12:31N 29°55' W 090°06'0 0.0
2014-Dec-11 11:04N 29°55' W 090°06'0 0.0
2014-Dec-11 10:28N 29°55' W 090°06'1 0.5
2014-Dec-11 09:21N 29°55' W 090°05'1 0.5
2014-Dec-11 08:15N 29°55' W 090°06'  
Track history (hours):
 
Tides and Currents Weather Stations Pressure Air Temp Water Temp Dewpoint Dewpoint Depression Visibility Wind Speed Wind Dir Waves Ship Positions

Captain Jimmy T Moran

Owner: Moran Towing Corp, New Cannan, CT. More information available from US FCC via Universal Licensing System and Coast Guard Vessel Documentation Center.

Last reported at 2014-Dec-21 07:27 UTC. Time now 2014-Dec-21 12:05 UTC.
Position N 29°55' W 090°06'.

Length 26 m; draft 4.9 m.

Type: Tug. MMSI: 367382920.

Date/timePositionNaut miles runAvg speedWind from/ knotsBaromVisibWave heightAir tempDewpointWater temp
2014-Dec-21 07:27N 29°55' W 090°06'0 0.0
2014-Dec-20 13:08N 29°55' W 090°06'0 0.0
2014-Dec-20 12:25N 29°55' W 090°06'0 0.0
2014-Dec-20 11:33N 29°55' W 090°06'0 0.0
2014-Dec-20 10:28N 29°55' W 090°06'0 0.0
2014-Dec-20 09:21N 29°55' W 090°06'0 0.0
2014-Dec-20 08:31N 29°55' W 090°06'0 0.0
2014-Dec-20 07:21N 29°55' W 090°06'0 0.0
2014-Dec-20 06:24N 29°55' W 090°06'0 0.0
2014-Dec-20 05:28N 29°55' W 090°06'5 0.3
2014-Dec-19 14:32N 29°57' W 090°01'1 0.1
2014-Dec-19 10:33N 29°57' W 090°01'2 0.2
2014-Dec-18 20:22N 29°57' W 090°03'0 0.0
2014-Dec-18 17:14N 29°57' W 090°03'3 0.4
2014-Dec-18 08:22N 29°55' W 090°06'0 0.1
2014-Dec-18 02:27N 29°55' W 090°06'2 0.3
2014-Dec-17 20:32N 29°55' W 090°05'2 1.5
2014-Dec-17 19:23N 29°55' W 090°06'1 1.7
2014-Dec-17 18:33N 29°55' W 090°05'4 1.8
2014-Dec-17 16:21N 29°57' W 090°01'5 0.9
2014-Dec-17 10:32N 29°55' W 090°06'1 0.9
2014-Dec-17 09:33N 29°55' W 090°05'1 0.2
2014-Dec-17 04:22N 29°55' W 090°04'0 0.2
2014-Dec-17 02:17N 29°56' W 090°04'3 2.4
2014-Dec-17 01:10N 29°55' W 090°07'1 0.1
2014-Dec-16 15:32N 29°55' W 090°06'0 0.0
2014-Dec-16 05:27N 29°55' W 090°06'1 0.6
2014-Dec-16 04:20N 29°55' W 090°07'1 0.0
2014-Dec-15 11:13N 29°55' W 090°06'0 0.2
2014-Dec-15 10:22N 29°55' W 090°06'0 0.1
2014-Dec-15 09:30N 29°55' W 090°06'0 0.1
2014-Dec-15 08:16N 29°55' W 090°06'0 0.0
2014-Dec-15 07:24N 29°55' W 090°06'0 0.0
2014-Dec-15 06:16N 29°55' W 090°06'0 0.0
2014-Dec-15 04:28N 29°55' W 090°06'0 0.0
2014-Dec-15 03:32N 29°55' W 090°06'1 0.3
2014-Dec-15 01:07N 29°55' W 090°05'0 0.0
2014-Dec-15 00:10N 29°55' W 090°05'1 0.2
2014-Dec-14 21:22N 29°55' W 090°04'1 0.2
2014-Dec-14 12:08N 29°55' W 090°06'1 0.4
2014-Dec-14 08:32N 29°55' W 090°04'3 2.8
2014-Dec-14 07:24N 29°57' W 090°02'0 0.5
2014-Dec-14 06:28N 29°57' W 090°01'0 0.0
2014-Dec-14 05:06N 29°57' W 090°01'0 0.0
2014-Dec-14 04:27N 29°57' W 090°01'0 0.0
2014-Dec-14 03:27N 29°57' W 090°01'0 0.0
2014-Dec-14 02:33N 29°57' W 090°01'0 0.0
2014-Dec-14 01:27N 29°57' W 090°01'0 0.0
2014-Dec-14 00:33N 29°57' W 090°01'0 0.0
2014-Dec-13 23:30N 29°57' W 090°01'0 0.0
2014-Dec-13 22:26N 29°57' W 090°01'4 1.1
2014-Dec-13 18:28N 29°55' W 089°57'7 7.0
2014-Dec-13 17:29N 29°55' W 090°05'1 1.2
2014-Dec-13 16:27N 29°55' W 090°06'0 0.0
2014-Dec-13 15:31N 29°55' W 090°06'1 0.0
2014-Dec-13 00:32N 29°54' W 090°06'1 0.0
2014-Dec-12 11:32N 29°55' W 090°06'1 0.3
2014-Dec-12 09:23N 29°55' W 090°07'1 0.3
2014-Dec-12 07:25N 29°55' W 090°06'0 0.0
2014-Dec-12 06:18N 29°55' W 090°06'0 0.1
2014-Dec-12 04:31N 29°55' W 090°06'0 0.0
2014-Dec-12 01:33N 29°55' W 090°06'0 0.2
2014-Dec-12 00:11N 29°55' W 090°05'2 2.1
2014-Dec-11 23:17N 29°56' W 090°04'2 0.2
2014-Dec-11 12:31N 29°55' W 090°06'0 0.0
2014-Dec-11 11:04N 29°55' W 090°06'0 0.0
2014-Dec-11 10:28N 29°55' W 090°06'1 0.5
2014-Dec-11 09:21N 29°55' W 090°05'1 0.5
2014-Dec-11 08:15N 29°55' W 090°06'  

Dump ship's entire track history